createdAt,value
2023-03-26T00:01:36.545Z,100222.53
2023-03-26T00:04:05.786Z,100221.44
2023-03-26T00:06:39.566Z,100222.22
2023-03-26T00:09:10.339Z,100215.53
2023-03-26T00:11:37.305Z,100214.41
2023-03-26T00:14:05.628Z,100210.03
2023-03-26T00:16:32.777Z,100210.75
2023-03-26T00:19:01.405Z,100211.78
2023-03-26T00:21:30.251Z,100208.78
2023-03-26T00:23:59.962Z,100205.84
2023-03-26T00:26:27.225Z,100199.63
2023-03-26T00:28:54.617Z,100203.88
2023-03-26T00:31:22.239Z,100198.00
2023-03-26T00:33:54.385Z,100198.25
2023-03-26T00:36:23.137Z,100209.72
2023-03-26T00:38:50.024Z,100213.97
2023-03-26T00:41:23.315Z,100204.84
2023-03-26T00:43:56.772Z,100194.75
2023-03-26T00:46:25.623Z,100209.19
2023-03-26T00:48:52.894Z,100204.91
2023-03-26T00:51:21.200Z,100196.41
2023-03-26T00:53:49.821Z,100193.25
2023-03-26T00:56:17.738Z,100198.06
2023-03-26T00:58:46.495Z,100189.22
2023-03-26T01:01:17.768Z,100185.22
2023-03-26T01:04:00.865Z,100182.78
2023-03-26T01:06:36.074Z,100179.31
2023-03-26T01:09:12.852Z,100167.50
2023-03-26T01:11:39.722Z,100169.13
2023-03-26T01:14:11.238Z,100168.59
2023-03-26T01:16:58.637Z,100163.25
2023-03-26T01:19:38.131Z,100165.91
2023-03-26T01:22:11.821Z,100160.50
2023-03-26T01:24:39.911Z,100155.69
2023-03-26T01:27:33.775Z,100153.81
2023-03-26T01:30:11.298Z,100143.94
2023-03-26T01:32:44.421Z,100141.81
2023-03-26T01:35:12.549Z,100134.38
2023-03-26T01:37:58.782Z,100127.41
2023-03-26T01:40:42.851Z,100124.47
2023-03-26T01:43:54.392Z,100122.03
2023-03-26T01:46:25.706Z,100122.03
2023-03-26T01:48:53.385Z,100104.63
2023-03-26T01:51:35.863Z,100100.09
2023-03-26T01:54:06.041Z,100108.16
2023-03-26T01:56:51.335Z,100106.59
2023-03-26T01:59:55.683Z,100091.56
2023-03-26T02:02:28.079Z,100085.16
2023-03-26T02:05:09.645Z,100080.06
2023-03-26T02:08:22.693Z,100082.75
2023-03-26T02:10:59.088Z,100070.69
2023-03-26T02:13:26.943Z,100068.78
2023-03-26T02:16:03.911Z,100059.97
2023-03-26T02:18:37.464Z,100051.09
2023-03-26T02:21:13.915Z,100053.25
2023-03-26T02:23:47.013Z,100046.03
2023-03-26T02:26:17.399Z,100042.84
2023-03-26T02:29:14.609Z,100041.75
2023-03-26T02:31:45.657Z,100028.34
2023-03-26T02:34:15.719Z,100029.97
2023-03-26T02:36:50.368Z,100023.81
2023-03-26T02:39:19.034Z,100017.91
2023-03-26T02:41:55.078Z,100015.53
2023-03-26T02:44:27.782Z,100014.97
2023-03-26T02:47:20.889Z,100014.97
2023-03-26T02:49:54.392Z,100007.75
2023-03-26T02:52:28.023Z,100003.72
2023-03-26T02:54:59.939Z,99994.59
2023-03-26T02:57:28.841Z,99992.47
2023-03-26T03:00:29.104Z,99985.50
2023-03-26T03:03:24.983Z,99975.84
2023-03-26T03:06:23.127Z,99971.03
2023-03-26T03:08:54.129Z,99968.63
2023-03-26T03:11:45.236Z,99960.31
2023-03-26T03:14:13.718Z,99958.97
2023-03-26T03:16:41.568Z,99964.59
2023-03-26T03:19:13.537Z,99959.28
2023-03-26T03:21:46.042Z,99958.19
2023-03-26T03:24:18.938Z,99951.78
2023-03-26T03:26:52.687Z,99951.50
2023-03-26T03:29:30.867Z,99945.84
2023-03-26T03:32:08.054Z,99938.34
2023-03-26T03:34:43.470Z,99937.53
2023-03-26T03:37:11.421Z,99933.00
2023-03-26T03:40:00.291Z,99928.97
2023-03-26T03:42:31.026Z,99920.66
2023-03-26T03:45:05.377Z,99918.53
2023-03-26T03:47:50.479Z,99910.75
2023-03-26T03:50:27.821Z,99919.31
2023-03-26T03:53:16.356Z,99913.69
2023-03-26T03:55:53.690Z,99904.03
2023-03-26T03:58:28.443Z,99898.44
2023-03-26T04:01:03.194Z,99900.84
2023-03-26T04:03:51.397Z,99893.06
2023-03-26T04:06:22.082Z,99884.78
2023-03-26T04:08:52.986Z,99885.59
2023-03-26T04:11:20.778Z,99879.41
2023-03-26T04:14:05.749Z,99863.91
2023-03-26T04:16:53.262Z,99867.91
2023-03-26T04:19:21.370Z,99859.59
2023-03-26T04:21:51.288Z,99857.47
2023-03-26T04:24:22.590Z,99844.88
2023-03-26T04:27:19.463Z,99842.22
2023-03-26T04:29:50.043Z,99834.19
2023-03-26T04:32:30.468Z,99827.78
2023-03-26T04:35:04.143Z,99820.53
2023-03-26T04:37:41.517Z,99823.72
2023-03-26T04:40:24.522Z,99810.06
2023-03-26T04:43:02.574Z,99822.34
2023-03-26T04:45:55.257Z,99817.53
2023-03-26T04:48:25.970Z,99810.06
2023-03-26T04:50:53.700Z,99804.44
2023-03-26T04:53:24.901Z,99795.88
2023-03-26T04:56:33.786Z,99792.41
2023-03-26T04:59:30.398Z,99790.78
2023-03-26T05:02:00.591Z,99786.25
2023-03-26T05:04:34.351Z,99779.28
2023-03-26T05:07:02.645Z,99776.38
2023-03-26T05:09:42.717Z,99773.97
2023-03-26T05:12:17.797Z,99766.47
2023-03-26T05:14:56.930Z,99754.16
2023-03-26T05:17:51.604Z,99756.81
2023-03-26T05:20:33.765Z,99748.25
2023-03-26T05:23:03.615Z,99742.38
2023-03-26T05:25:35.309Z,99749.34
2023-03-26T05:28:06.608Z,99748.81
2023-03-26T05:30:49.693Z,99745.06
2023-03-26T05:33:18.167Z,99746.69
2023-03-26T05:36:17.540Z,99740.78
2023-03-26T05:38:50.318Z,99732.75
2023-03-26T05:41:37.828Z,99726.31
2023-03-26T05:44:05.393Z,99719.88
2023-03-26T05:46:32.422Z,99718.59
2023-03-26T05:49:03.345Z,99710.28
2023-03-26T05:51:33.765Z,99704.91
2023-03-26T05:54:21.164Z,99694.75
2023-03-26T05:57:08.042Z,99693.66
2023-03-26T05:59:56.217Z,99688.31
2023-03-26T06:02:43.101Z,99682.41
2023-03-26T06:05:34.443Z,99672.19
2023-03-26T06:08:22.039Z,99678.06
2023-03-26T06:10:58.394Z,99674.31
2023-03-26T06:13:26.647Z,99670.84
2023-03-26T06:15:54.007Z,99659.06
2023-03-26T06:18:27.951Z,99656.13
2023-03-26T06:21:28.037Z,99649.44
2023-03-26T06:24:04.337Z,99647.53
2023-03-26T06:26:43.646Z,99642.69
2023-03-26T06:29:46.403Z,99643.72
2023-03-26T06:32:40.154Z,99643.16
2023-03-26T06:35:13.811Z,99632.75
2023-03-26T06:37:40.754Z,99625.84
2023-03-26T06:40:08.620Z,99626.44
2023-03-26T06:43:06.873Z,99608.59
2023-03-26T06:45:53.557Z,99604.38
2023-03-26T06:48:40.319Z,99615.38
2023-03-26T06:51:20.481Z,99604.91
2023-03-26T06:54:06.624Z,99605.44
2023-03-26T06:56:54.715Z,99594.72
2023-03-26T06:59:40.683Z,99599.28
2023-03-26T07:02:26.618Z,99597.44
2023-03-26T07:05:13.091Z,99600.13
2023-03-26T07:08:16.851Z,99605.44
2023-03-26T07:11:02.782Z,99584.78
2023-03-26T07:13:48.179Z,99581.28
2023-03-26T07:16:41.037Z,99582.41
2023-03-26T07:19:16.789Z,99575.41
2023-03-26T07:21:44.969Z,99574.38
2023-03-26T07:24:26.509Z,99571.16
2023-03-26T07:27:44.039Z,99563.41
2023-03-26T07:30:20.125Z,99563.63
2023-03-26T07:33:31.936Z,99567.56
2023-03-26T07:36:41.757Z,99555.47
2023-03-26T07:39:56.094Z,99548.47
2023-03-26T07:43:08.042Z,99547.66
2023-03-26T07:46:04.563Z,99540.94
2023-03-26T07:48:49.878Z,99538.47
2023-03-26T07:51:40.175Z,99545.13
2023-03-26T07:54:31.067Z,99545.19
2023-03-26T07:57:27.008Z,99551.13
2023-03-26T08:00:40.519Z,99557.09
2023-03-26T08:03:25.079Z,99556.03
2023-03-26T08:06:18.087Z,99546.44
2023-03-26T08:09:11.968Z,99551.84
2023-03-26T08:12:30.479Z,99570.59
2023-03-26T08:15:25.951Z,99551.69
2023-03-26T08:18:11.955Z,99552.50
2023-03-26T08:20:54.396Z,99562.97
2023-03-26T08:23:34.215Z,99564.81
2023-03-26T08:26:14.155Z,99548.81
2023-03-26T08:29:04.848Z,99549.88
2023-03-26T08:31:35.481Z,99540.22
2023-03-26T08:34:02.990Z,99558.13
2023-03-26T08:36:30.283Z,99554.13
2023-03-26T08:38:59.725Z,99540.25
2023-03-26T08:41:28.894Z,99515.66
2023-03-26T08:44:17.054Z,99506.59
2023-03-26T08:47:11.812Z,99525.28
2023-03-26T08:49:44.920Z,99513.00
2023-03-26T08:52:49.896Z,99517.72
2023-03-26T08:55:26.131Z,99523.09
2023-03-26T08:58:43.590Z,99516.72
2023-03-26T09:01:16.421Z,99510.88
2023-03-26T09:04:17.082Z,99496.69
2023-03-26T09:07:06.828Z,99494.28
2023-03-26T09:10:09.112Z,99499.75
2023-03-26T09:12:50.982Z,99503.44
2023-03-26T09:15:47.026Z,99494.72
2023-03-26T09:18:19.941Z,99498.06
2023-03-26T09:21:26.280Z,99480.69
2023-03-26T09:24:30.854Z,99474.41
2023-03-26T09:27:16.698Z,99475.06
2023-03-26T09:30:47.307Z,99461.00
2023-03-26T09:33:43.610Z,99458.88
2023-03-26T09:36:32.557Z,99460.72
2023-03-26T09:39:08.818Z,99465.66
2023-03-26T09:41:43.454Z,99468.47
2023-03-26T09:44:28.545Z,99467.13
2023-03-26T09:47:20.099Z,99456.16
2023-03-26T09:50:15.229Z,99457.16
2023-03-26T09:53:05.125Z,99462.97
2023-03-26T09:55:46.375Z,99452.06
2023-03-26T09:58:44.595Z,99446.56
2023-03-26T10:01:22.819Z,99442.59
2023-03-26T10:04:15.696Z,99432.59
2023-03-26T10:06:58.455Z,99432.47
2023-03-26T10:09:46.295Z,99420.78
2023-03-26T10:12:34.489Z,99408.72
2023-03-26T10:15:23.393Z,99395.69
2023-03-26T10:18:30.150Z,99376.16
2023-03-26T10:21:36.340Z,99364.41
2023-03-26T10:24:28.050Z,99372.50
2023-03-26T10:27:10.798Z,99376.88
2023-03-26T10:29:59.787Z,99373.41
2023-03-26T10:32:38.105Z,99387.41
2023-03-26T10:35:43.483Z,99377.53
2023-03-26T10:38:13.291Z,99404.19
2023-03-26T10:41:06.746Z,99392.38
2023-03-26T10:43:42.129Z,99396.34
2023-03-26T10:46:46.618Z,99395.91
2023-03-26T10:49:39.837Z,99386.91
2023-03-26T10:52:16.319Z,99392.59
2023-03-26T10:55:04.233Z,99392.56
2023-03-26T10:57:56.371Z,99404.00
2023-03-26T11:00:26.222Z,99396.28
2023-03-26T11:03:09.964Z,99396.03
2023-03-26T11:06:05.131Z,99383.94
2023-03-26T11:08:46.988Z,99383.84
2023-03-26T11:11:30.653Z,99371.66
2023-03-26T11:14:34.743Z,99370.13
2023-03-26T11:17:14.502Z,99361.09
2023-03-26T11:20:10.909Z,99347.19
2023-03-26T11:22:46.788Z,99368.97
2023-03-26T11:25:41.544Z,99360.88
2023-03-26T11:28:30.456Z,99363.72
2023-03-26T11:31:21.931Z,99370.75
2023-03-26T11:34:00.558Z,99369.94
2023-03-26T11:36:36.550Z,99357.53
2023-03-26T11:39:10.810Z,99350.31
2023-03-26T11:41:37.649Z,99364.41
2023-03-26T11:44:29.994Z,99368.16
2023-03-26T11:47:05.510Z,99361.81
2023-03-26T11:49:32.865Z,99368.44
2023-03-26T11:52:01.099Z,99371.34
2023-03-26T11:54:27.982Z,99373.22
2023-03-26T11:57:12.977Z,99384.84
2023-03-26T11:59:59.567Z,99391.28
2023-03-26T12:02:38.064Z,99390.44
2023-03-26T12:05:15.332Z,99398.69
2023-03-26T12:07:54.000Z,99393.03
2023-03-26T12:10:43.215Z,99379.28
2023-03-26T12:13:21.269Z,99364.69
2023-03-26T12:15:48.531Z,99358.75
2023-03-26T12:18:37.298Z,99356.31
2023-03-26T12:21:14.100Z,99355.50
2023-03-26T12:24:04.714Z,99356.28
2023-03-26T12:26:42.346Z,99365.91
2023-03-26T12:29:12.547Z,99363.44
2023-03-26T12:31:49.770Z,99362.84
2023-03-26T12:34:22.534Z,99350.41
2023-03-26T12:37:00.164Z,99345.97
2023-03-26T12:40:09.701Z,99344.59
2023-03-26T12:44:51.043Z,99337.75
2023-03-26T12:45:29.015Z,99335.53
2023-03-26T12:48:04.237Z,99337.59
2023-03-26T12:51:02.225Z,99338.72
2023-03-26T12:54:16.689Z,99332.03
2023-03-26T12:57:11.682Z,99328.56
2023-03-26T13:00:12.627Z,99333.63
2023-03-26T13:02:59.403Z,99329.81
2023-03-26T13:05:42.388Z,99336.97
2023-03-26T13:08:39.539Z,99329.44
2023-03-26T13:11:28.434Z,99328.34
2023-03-26T13:14:21.942Z,99323.94
2023-03-26T13:16:56.679Z,99309.53
2023-03-26T13:19:42.344Z,99314.69
2023-03-26T13:22:40.917Z,99309.00
2023-03-26T13:25:31.192Z,99312.63
2023-03-26T13:28:16.990Z,99309.91
2023-03-26T13:31:11.384Z,99301.28
2023-03-26T13:33:47.259Z,99299.28
2023-03-26T13:36:31.139Z,99298.81
2023-03-26T13:39:13.288Z,99300.53
2023-03-26T13:41:56.618Z,99311.28
2023-03-26T13:44:37.596Z,99302.13
2023-03-26T13:47:32.199Z,99307.63
2023-03-26T13:50:07.968Z,99287.16
2023-03-26T13:52:45.176Z,99296.25
2023-03-26T13:55:17.856Z,99299.28
2023-03-26T13:58:06.236Z,99293.84
2023-03-26T14:00:58.967Z,99295.94
2023-03-26T14:03:38.079Z,99295.84
2023-03-26T14:06:14.829Z,99298.13
2023-03-26T14:08:49.716Z,99299.28
2023-03-26T14:11:22.872Z,99295.97
2023-03-26T14:14:04.463Z,99299.16
2023-03-26T14:16:45.866Z,99292.63
2023-03-26T14:19:21.737Z,99296.47
2023-03-26T14:22:13.159Z,99285.03
2023-03-26T14:25:05.186Z,99278.66
2023-03-26T14:28:04.443Z,99273.09
2023-03-26T14:31:13.688Z,99285.50
2023-03-26T14:34:16.399Z,99283.75
2023-03-26T14:36:49.246Z,99273.75
2023-03-26T14:39:22.381Z,99291.38
2023-03-26T14:41:51.402Z,99283.91
2023-03-26T14:44:54.666Z,99290.53
2023-03-26T14:47:24.190Z,99287.06
2023-03-26T14:50:11.444Z,99294.81
2023-03-26T14:52:52.552Z,99286.22
2023-03-26T14:56:04.803Z,99287.13
2023-03-26T14:58:54.418Z,99291.66
2023-03-26T15:01:37.704Z,99288.50
2023-03-26T15:04:31.803Z,99284.91
2023-03-26T15:07:23.761Z,99280.56
2023-03-26T15:10:22.673Z,99298.06
2023-03-26T15:13:23.543Z,99302.28
2023-03-26T15:16:31.687Z,99299.94
2023-03-26T15:19:20.639Z,99307.16
2023-03-26T15:22:27.039Z,99314.47
2023-03-26T15:25:33.291Z,99314.13
2023-03-26T15:28:15.983Z,99316.47
2023-03-26T15:30:57.925Z,99322.94
2023-03-26T15:33:52.073Z,99321.03
2023-03-26T15:37:01.785Z,99329.16
2023-03-26T15:40:00.896Z,99333.06
2023-03-26T15:46:12.451Z,99337.38
2023-03-26T15:48:51.630Z,99343.97
2023-03-26T15:51:46.779Z,99347.97
2023-03-26T15:54:32.794Z,99350.66
2023-03-26T15:57:31.620Z,99359.22
2023-03-26T16:00:29.162Z,99360.22
2023-03-26T16:03:10.952Z,99361.19
2023-03-26T16:06:17.178Z,99373.44
2023-03-26T16:09:09.980Z,99366.66
2023-03-26T16:11:50.531Z,99370.34
2023-03-26T16:14:23.737Z,99369.63
2023-03-26T16:17:01.516Z,99385.72
2023-03-26T16:20:06.705Z,99398.41
2023-03-26T16:22:57.535Z,99394.22
2023-03-26T16:25:29.549Z,99405.72
2023-03-26T16:28:12.482Z,99407.25
2023-03-26T16:30:40.503Z,99405.78
2023-03-26T16:33:15.621Z,99415.47
2023-03-26T16:36:26.565Z,99413.94
2023-03-26T16:38:59.331Z,99407.19
2023-03-26T16:41:32.058Z,99414.88
2023-03-26T16:44:02.826Z,99411.38
2023-03-26T16:46:56.367Z,99405.78
2023-03-26T16:49:37.386Z,99405.22
2023-03-26T16:52:32.740Z,99416.06
2023-03-26T16:55:13.216Z,99419.81
2023-03-26T16:58:13.542Z,99412.25
2023-03-26T17:00:46.131Z,99419.53
2023-03-26T17:03:43.680Z,99421.47
2023-03-26T17:06:23.387Z,99422.72
2023-03-26T17:09:05.497Z,99424.38
2023-03-26T17:11:57.641Z,99420.03
2023-03-26T17:14:59.428Z,99427.13
2023-03-26T17:18:00.535Z,99429.38
2023-03-26T17:20:42.657Z,99428.38
2023-03-26T17:23:33.794Z,99429.09
2023-03-26T17:26:25.681Z,99427.63
2023-03-26T17:29:02.506Z,99422.91
2023-03-26T17:31:38.616Z,99429.72
2023-03-26T17:34:52.504Z,99435.81
2023-03-26T17:37:22.154Z,99430.63
2023-03-26T17:39:58.215Z,99432.72
2023-03-26T17:42:33.891Z,99426.03
2023-03-26T17:45:20.607Z,99427.13
2023-03-26T17:47:52.900Z,99429.88
2023-03-26T17:50:30.515Z,99433.50
2023-03-26T17:53:27.298Z,99429.16
2023-03-26T17:55:57.562Z,99428.09
2023-03-26T17:58:48.095Z,99426.41
2023-03-26T18:01:40.016Z,99419.00
2023-03-26T18:04:18.720Z,99425.53
2023-03-26T18:06:53.144Z,99437.06
2023-03-26T18:09:29.736Z,99423.41
2023-03-26T18:12:34.535Z,99431.03
2023-03-26T18:15:32.427Z,99439.78
2023-03-26T18:18:25.843Z,99440.06
2023-03-26T18:20:54.681Z,99442.00
2023-03-26T18:23:32.517Z,99441.06
2023-03-26T18:26:12.290Z,99447.03
2023-03-26T18:28:54.074Z,99445.41
2023-03-26T18:31:24.596Z,99444.28
2023-03-26T18:33:59.421Z,99443.72
2023-03-26T18:36:30.604Z,99442.00
2023-03-26T18:39:02.347Z,99440.56
2023-03-26T18:41:39.368Z,99434.91
2023-03-26T18:44:13.416Z,99439.09
2023-03-26T18:46:40.742Z,99439.53
2023-03-26T18:49:10.734Z,99443.34
2023-03-26T18:51:46.361Z,99431.50
2023-03-26T18:54:19.471Z,99430.69
2023-03-26T18:56:48.215Z,99427.75
2023-03-26T18:59:32.194Z,99426.59
2023-03-26T19:02:00.242Z,99416.91
2023-03-26T19:04:33.191Z,99422.78
2023-03-26T19:07:01.688Z,99416.91
2023-03-26T19:09:32.030Z,99411.53
2023-03-26T19:12:19.033Z,99420.88
2023-03-26T19:15:13.776Z,99419.88
2023-03-26T19:17:45.473Z,99424.72
2023-03-26T19:20:22.541Z,99419.88
2023-03-26T19:22:50.863Z,99424.94
2023-03-26T19:25:23.612Z,99423.16
2023-03-26T19:27:51.977Z,99425.06
2023-03-26T19:30:29.365Z,99428.28
2023-03-26T19:33:13.144Z,99430.00
2023-03-26T19:35:42.322Z,99438.66
2023-03-26T19:38:25.634Z,99435.56
2023-03-26T19:40:57.944Z,99433.50
2023-03-26T19:43:25.775Z,99437.06
2023-03-26T19:46:00.067Z,99438.97
2023-03-26T19:48:45.914Z,99436.88
2023-03-26T19:51:19.907Z,99435.81
2023-03-26T19:53:55.115Z,99437.50
2023-03-26T19:56:22.852Z,99429.97
2023-03-26T19:58:52.634Z,99431.09
2023-03-26T20:01:22.821Z,99435.38
2023-03-26T20:03:52.863Z,99431.94
2023-03-26T20:06:30.805Z,99441.34
2023-03-26T20:09:01.445Z,99456.59
2023-03-26T20:11:33.827Z,99435.72
2023-03-26T20:14:01.565Z,99443.50
2023-03-26T20:16:33.766Z,99448.59
2023-03-26T20:19:04.537Z,99449.97
2023-03-26T20:21:38.181Z,99452.13
2023-03-26T20:24:15.101Z,99454.84
2023-03-26T20:26:42.325Z,99459.22
2023-03-26T20:29:09.069Z,99461.66
2023-03-26T20:31:36.247Z,99465.66
2023-03-26T20:34:03.220Z,99464.56
2023-03-26T20:36:34.077Z,99466.66
2023-03-26T20:39:06.291Z,99465.53
2023-03-26T20:41:34.430Z,99473.06
2023-03-26T20:44:03.791Z,99471.97
2023-03-26T20:46:31.899Z,99466.34
2023-03-26T20:48:59.953Z,99470.34
2023-03-26T20:51:28.475Z,99476.47
2023-03-26T20:53:55.788Z,99478.63
2023-03-26T20:56:23.869Z,99480.19
2023-03-26T20:59:07.877Z,99478.94
2023-03-26T21:01:38.068Z,99479.19
2023-03-26T21:04:05.899Z,99481.84
2023-03-26T21:06:32.630Z,99487.44
2023-03-26T21:08:59.814Z,99489.03
2023-03-26T21:11:44.058Z,99494.16
2023-03-26T21:14:27.786Z,99504.56
2023-03-26T21:16:54.814Z,99500.25
2023-03-26T21:19:21.812Z,99505.84
2023-03-26T21:21:52.886Z,99503.50
2023-03-26T21:24:59.828Z,99516.91
2023-03-26T21:27:45.289Z,99512.69
2023-03-26T21:30:16.512Z,99522.38
2023-03-26T21:32:45.457Z,99522.72
2023-03-26T21:35:17.234Z,99521.69
2023-03-26T21:37:48.709Z,99522.75
2023-03-26T21:40:21.039Z,99529.47
2023-03-26T21:42:56.007Z,99527.06
2023-03-26T21:45:23.687Z,99530.53
2023-03-26T21:47:51.089Z,99535.34
2023-03-26T21:50:23.715Z,99539.13
2023-03-26T21:52:52.004Z,99536.50
2023-03-26T21:55:22.498Z,99542.66
2023-03-26T21:58:35.853Z,99543.44
2023-03-26T22:01:32.665Z,99553.88
2023-03-26T22:04:38.133Z,99565.34
2023-03-26T22:07:12.858Z,99565.34
2023-03-26T22:09:40.785Z,99581.38
2023-03-26T22:12:07.776Z,99586.97
2023-03-26T22:14:35.476Z,99591.78
2023-03-26T22:17:05.243Z,99589.63
2023-03-26T22:19:34.452Z,99596.28
2023-03-26T22:22:01.703Z,99612.22
2023-03-26T22:24:29.523Z,99611.41
2023-03-26T22:26:56.549Z,99616.50
2023-03-26T22:29:27.434Z,99632.00
2023-03-26T22:31:54.203Z,99636.78
2023-03-26T22:34:21.376Z,99648.75
2023-03-26T22:36:49.101Z,99648.44
2023-03-26T22:39:16.275Z,99645.97
2023-03-26T22:41:43.846Z,99662.97
2023-03-26T22:44:19.807Z,99671.44
2023-03-26T22:46:49.071Z,99680.84
2023-03-26T22:49:16.592Z,99682.44
2023-03-26T22:51:43.921Z,99696.25
2023-03-26T22:54:10.686Z,99699.66
2023-03-26T22:56:37.760Z,99710.88
2023-03-26T22:59:05.129Z,99718.88
2023-03-26T23:01:32.714Z,99731.34
2023-03-26T23:04:00.697Z,99735.03
2023-03-26T23:06:27.805Z,99742.50
2023-03-26T23:08:57.614Z,99747.34
2023-03-26T23:11:24.717Z,99754.84
2023-03-26T23:13:51.930Z,99747.91
2023-03-26T23:16:20.953Z,99753.25
2023-03-26T23:18:48.489Z,99757.97
2023-03-26T23:21:21.579Z,99759.03
2023-03-26T23:23:52.411Z,99771.25
2023-03-26T23:26:19.372Z,99776.28
2023-03-26T23:28:46.431Z,99786.16
2023-03-26T23:31:14.191Z,99795.78
2023-03-26T23:33:48.100Z,99798.44
2023-03-26T23:36:19.243Z,99801.66
2023-03-26T23:38:48.517Z,99813.88
2023-03-26T23:41:21.850Z,99834.13
2023-03-26T23:43:55.714Z,99834.88
2023-03-26T23:46:31.197Z,99835.56
2023-03-26T23:49:04.148Z,99845.50
2023-03-26T23:51:40.311Z,99853.56
2023-03-26T23:54:08.884Z,99857.78
2023-03-26T23:56:36.448Z,99869.41
2023-03-26T23:59:05.351Z,99880.53
